createdAt,value
2018-11-25T01:29:27.551Z,36.21
2018-11-25T01:29:28.125Z,35.93
2018-11-25T01:29:28.727Z,35.93
2018-11-25T01:29:29.324Z,36.11
2018-11-25T01:29:29.923Z,36.21
2018-11-25T01:29:30.522Z,36.21
2018-11-25T01:29:31.121Z,36.21
2018-11-25T01:29:31.729Z,35.93
2018-11-25T01:30:25.203Z,35.74
2018-11-25T01:30:25.776Z,35.83
2018-11-25T01:30:26.377Z,36.11
2018-11-25T01:30:26.975Z,35.74
2018-11-25T01:30:27.575Z,36.02
2018-11-25T01:30:28.176Z,35.93
2018-11-25T01:30:28.774Z,35.74
2018-11-25T01:30:29.374Z,36.02
2018-11-25T01:31:22.855Z,35.83
2018-11-25T01:31:23.430Z,35.74
2018-11-25T01:31:24.028Z,35.93
2018-11-25T01:31:24.630Z,35.74
2018-11-25T01:31:25.232Z,35.74
2018-11-25T01:31:25.828Z,35.83
2018-11-25T01:31:26.427Z,35.74
2018-11-25T01:31:27.028Z,35.83
2018-11-25T01:32:21.530Z,35.64
2018-11-25T01:32:22.105Z,35.93
2018-11-25T01:32:22.704Z,35.74
2018-11-25T01:32:23.304Z,35.93
2018-11-25T01:32:23.904Z,35.93
2018-11-25T01:32:24.504Z,35.74
2018-11-25T01:32:25.105Z,35.93
2018-11-25T01:32:25.704Z,35.93
2018-11-25T01:33:20.206Z,35.83
2018-11-25T01:33:20.780Z,35.74
2018-11-25T01:33:21.381Z,35.64
2018-11-25T01:33:21.980Z,36.11
2018-11-25T01:33:22.580Z,35.83
2018-11-25T01:33:23.178Z,35.83
2018-11-25T01:33:23.779Z,35.83
2018-11-25T01:33:24.378Z,35.74
2018-11-25T01:34:17.862Z,35.93
2018-11-25T01:34:18.432Z,35.74
2018-11-25T01:34:19.032Z,35.74
2018-11-25T01:34:19.632Z,35.83
2018-11-25T01:34:20.233Z,35.93
2018-11-25T01:34:20.833Z,35.93
2018-11-25T01:34:21.431Z,35.74
2018-11-25T01:34:22.031Z,35.93
2018-11-25T01:35:16.533Z,35.93
2018-11-25T01:35:17.110Z,35.83
2018-11-25T01:35:17.714Z,35.93
2018-11-25T01:35:18.308Z,35.93
2018-11-25T01:35:18.908Z,35.93
2018-11-25T01:35:19.513Z,35.93
2018-11-25T01:35:20.109Z,35.83
2018-11-25T01:35:20.709Z,35.93
2018-11-25T01:36:14.186Z,36.02
2018-11-25T01:36:14.765Z,35.93
2018-11-25T01:36:15.365Z,36.11
2018-11-25T01:36:15.960Z,35.83
2018-11-25T01:36:16.563Z,36.02
2018-11-25T01:36:17.159Z,36.11
2018-11-25T01:36:17.760Z,35.83
2018-11-25T01:36:18.364Z,35.74
2018-11-25T01:37:12.862Z,35.74
2018-11-25T01:37:13.442Z,35.74
2018-11-25T01:37:14.037Z,35.83
2018-11-25T01:37:14.637Z,35.74
2018-11-25T01:37:15.238Z,35.93
2018-11-25T01:37:15.836Z,35.74
2018-11-25T01:37:16.436Z,35.74
2018-11-25T01:37:17.035Z,35.83
2018-11-25T01:38:11.538Z,35.93
2018-11-25T01:38:12.111Z,35.83
2018-11-25T01:38:12.711Z,36.02
2018-11-25T01:38:13.313Z,35.93
2018-11-25T01:38:13.911Z,35.93
2018-11-25T01:38:14.512Z,35.83
2018-11-25T01:38:15.110Z,35.83
2018-11-25T01:38:15.710Z,35.93
2018-11-25T01:39:09.189Z,35.83
2018-11-25T01:39:09.767Z,36.02
2018-11-25T01:39:10.366Z,35.83
2018-11-25T01:39:10.968Z,36.02
2018-11-25T01:39:11.565Z,36.21
2018-11-25T01:39:12.164Z,35.83
2018-11-25T01:39:12.764Z,35.74
2018-11-25T01:39:13.365Z,36.21
2018-11-25T01:40:06.841Z,35.83
2018-11-25T01:40:07.416Z,36.11
2018-11-25T01:40:08.017Z,36.11
2018-11-25T01:40:08.621Z,35.74
2018-11-25T01:40:09.219Z,36.02
2018-11-25T01:40:09.815Z,35.93
2018-11-25T01:40:10.423Z,35.74
2018-11-25T01:40:11.014Z,35.83
2018-11-25T01:41:04.495Z,35.74
2018-11-25T01:41:05.070Z,35.93
2018-11-25T01:41:05.668Z,35.83
2018-11-25T01:41:06.269Z,35.93
2018-11-25T01:41:06.868Z,35.74
2018-11-25T01:41:07.469Z,35.83
2018-11-25T01:41:08.068Z,35.83
2018-11-25T01:41:08.669Z,35.93
2018-11-25T01:42:02.146Z,35.83
2018-11-25T01:42:02.722Z,35.93
2018-11-25T01:42:03.320Z,35.93
2018-11-25T01:42:03.920Z,35.93
2018-11-25T01:42:04.520Z,36.02
2018-11-25T01:42:05.119Z,35.74
2018-11-25T01:42:05.719Z,35.83
2018-11-25T01:42:06.318Z,35.93
2018-11-25T01:42:59.798Z,35.93
2018-11-25T01:43:00.378Z,35.93
2018-11-25T01:43:00.971Z,35.83
2018-11-25T01:43:01.572Z,36.02
2018-11-25T01:43:02.174Z,35.83
2018-11-25T01:43:02.810Z,35.83
2018-11-25T01:43:03.374Z,35.83
2018-11-25T01:43:03.972Z,35.93
2018-11-25T01:43:58.473Z,35.74
2018-11-25T01:43:59.047Z,35.93
2018-11-25T01:43:59.652Z,35.93
2018-11-25T01:44:00.246Z,35.74
2018-11-25T01:44:00.847Z,35.93
2018-11-25T01:44:01.447Z,35.93
2018-11-25T01:44:02.048Z,35.93
2018-11-25T01:44:02.645Z,35.93
2018-11-25T01:44:56.125Z,35.83
2018-11-25T01:44:56.700Z,36.02
2018-11-25T01:44:57.302Z,36.02
2018-11-25T01:44:57.900Z,36.02
2018-11-25T01:44:58.499Z,36.02
2018-11-25T01:44:59.102Z,36.02
2018-11-25T01:44:59.699Z,35.93
2018-11-25T01:45:00.300Z,35.93
2018-11-25T01:45:53.778Z,36.40
2018-11-25T01:45:54.352Z,36.02
2018-11-25T01:45:54.951Z,36.30
2018-11-25T01:45:55.552Z,36.30
2018-11-25T01:45:56.151Z,36.40
2018-11-25T01:45:56.752Z,36.49
2018-11-25T01:45:57.351Z,36.30
2018-11-25T01:45:57.952Z,35.93
2018-11-25T01:46:51.429Z,36.30
2018-11-25T01:46:52.003Z,36.21
2018-11-25T01:46:52.604Z,36.21
2018-11-25T01:46:53.203Z,36.30
2018-11-25T01:46:53.803Z,36.21
2018-11-25T01:46:54.403Z,36.21
2018-11-25T01:46:55.003Z,36.30
2018-11-25T01:46:55.610Z,36.30
2018-11-25T01:47:50.108Z,36.97
2018-11-25T01:47:50.683Z,36.87
2018-11-25T01:47:51.279Z,36.87
2018-11-25T01:47:51.878Z,36.87
2018-11-25T01:47:52.479Z,36.78
2018-11-25T01:47:53.078Z,36.87
2018-11-25T01:47:53.679Z,36.87
2018-11-25T01:47:54.279Z,36.78
2018-11-25T01:48:47.756Z,37.54
2018-11-25T01:48:48.331Z,37.06
2018-11-25T01:48:48.930Z,37.54
2018-11-25T01:48:49.531Z,37.54
2018-11-25T01:48:50.131Z,37.54
2018-11-25T01:48:50.730Z,37.35
2018-11-25T01:48:51.330Z,37.25
2018-11-25T01:48:51.931Z,37.35
2018-11-25T01:49:45.407Z,37.44
2018-11-25T01:49:45.984Z,37.63
2018-11-25T01:49:46.583Z,37.63
2018-11-25T01:49:47.183Z,37.63
2018-11-25T01:49:47.782Z,37.63
2018-11-25T01:49:48.382Z,37.54
2018-11-25T01:49:48.983Z,37.63
2018-11-25T01:49:49.583Z,37.63
2018-11-25T01:50:44.084Z,38.39
2018-11-25T01:50:44.658Z,38.39
2018-11-25T01:50:45.265Z,38.01
2018-11-25T01:50:45.859Z,38.01
2018-11-25T01:50:46.458Z,38.48
2018-11-25T01:50:47.058Z,38.48
2018-11-25T01:50:47.657Z,38.39
2018-11-25T01:50:48.259Z,38.39
2018-11-25T01:51:41.738Z,38.67
2018-11-25T01:51:42.311Z,38.67
2018-11-25T01:51:42.913Z,38.67
2018-11-25T01:51:43.510Z,38.58
2018-11-25T01:51:44.110Z,38.58
2018-11-25T01:51:44.709Z,38.77
2018-11-25T01:51:45.309Z,38.67
2018-11-25T01:51:45.909Z,38.77
2018-11-25T01:52:39.389Z,39.15
2018-11-25T01:52:39.963Z,39.15
2018-11-25T01:52:40.562Z,39.05
2018-11-25T01:52:41.162Z,39.05
2018-11-25T01:52:41.761Z,38.96
2018-11-25T01:52:42.362Z,39.05
2018-11-25T01:52:42.972Z,39.15
2018-11-25T01:52:43.561Z,38.96
2018-11-25T01:53:37.042Z,39.24
2018-11-25T01:53:37.614Z,39.24
2018-11-25T01:53:38.217Z,39.43
2018-11-25T01:53:38.814Z,39.34
2018-11-25T01:53:39.415Z,39.43
2018-11-25T01:53:40.015Z,39.24
2018-11-25T01:53:40.613Z,39.43
2018-11-25T01:53:41.215Z,39.34
2018-11-25T01:54:34.694Z,40.09
2018-11-25T01:54:35.266Z,40.00
2018-11-25T01:54:35.865Z,40.09
2018-11-25T01:54:36.465Z,40.19
2018-11-25T01:54:37.066Z,40.47
2018-11-25T01:54:37.665Z,40.38
2018-11-25T01:54:38.267Z,40.09
2018-11-25T01:54:38.866Z,40.19
2018-11-25T01:55:33.366Z,40.19
2018-11-25T01:55:33.942Z,40.28
2018-11-25T01:55:34.543Z,40.47
2018-11-25T01:55:35.140Z,40.28
2018-11-25T01:55:35.744Z,40.38
2018-11-25T01:55:36.340Z,40.57
2018-11-25T01:55:36.944Z,40.57
2018-11-25T01:55:37.541Z,40.66
2018-11-25T01:56:32.043Z,42.27
2018-11-25T01:56:32.619Z,42.27
2018-11-25T01:56:33.215Z,42.18
2018-11-25T01:56:33.815Z,42.18
2018-11-25T01:56:34.415Z,42.18
2018-11-25T01:56:35.016Z,42.37
2018-11-25T01:56:35.617Z,42.18
2018-11-25T01:56:36.216Z,42.27
2018-11-25T01:57:30.718Z,43.51
2018-11-25T01:57:31.295Z,43.51
2018-11-25T01:57:31.893Z,43.41
2018-11-25T01:57:32.492Z,43.60
2018-11-25T01:57:33.091Z,43.60
2018-11-25T01:57:33.691Z,43.70
2018-11-25T01:57:34.292Z,43.51
2018-11-25T01:57:34.895Z,43.70
2018-11-25T01:58:29.393Z,44.27
2018-11-25T01:58:29.968Z,44.27
2018-11-25T01:58:30.567Z,44.27
2018-11-25T01:58:31.168Z,44.27
2018-11-25T01:58:31.769Z,44.36
2018-11-25T01:58:32.367Z,44.36
2018-11-25T01:58:32.967Z,44.46
2018-11-25T01:58:33.567Z,45.12
2018-11-25T01:59:28.071Z,45.31
2018-11-25T01:59:28.644Z,45.59
2018-11-25T01:59:29.242Z,45.50
2018-11-25T01:59:29.844Z,45.59
2018-11-25T01:59:30.443Z,45.69
2018-11-25T01:59:31.043Z,45.59
2018-11-25T01:59:31.643Z,45.78
2018-11-25T01:59:32.242Z,45.78
2018-11-25T02:00:26.744Z,46.07
2018-11-25T02:00:27.319Z,45.97
2018-11-25T02:00:27.918Z,46.07
2018-11-25T02:00:28.519Z,46.35
2018-11-25T02:00:29.119Z,46.35
2018-11-25T02:00:29.719Z,46.26
2018-11-25T02:00:30.318Z,46.26
2018-11-25T02:00:30.919Z,46.26
2018-11-25T02:01:24.401Z,46.54
2018-11-25T02:01:24.971Z,46.64
2018-11-25T02:01:25.572Z,46.54
2018-11-25T02:01:26.171Z,46.83
2018-11-25T02:01:26.771Z,46.54
2018-11-25T02:01:27.371Z,46.54
2018-11-25T02:01:27.971Z,46.73
2018-11-25T02:01:28.571Z,46.73
2018-11-25T02:02:22.048Z,47.49
2018-11-25T02:02:22.624Z,47.58
2018-11-25T02:02:23.224Z,47.30
2018-11-25T02:02:23.823Z,47.49
2018-11-25T02:02:24.423Z,47.39
2018-11-25T02:02:25.023Z,47.49
2018-11-25T02:02:25.629Z,47.39
2018-11-25T02:02:26.222Z,47.68
2018-11-25T02:03:20.724Z,47.68
2018-11-25T02:03:21.298Z,47.39
2018-11-25T02:03:21.897Z,47.49
2018-11-25T02:03:22.498Z,47.68
2018-11-25T02:03:23.099Z,47.39
2018-11-25T02:03:23.697Z,47.58
2018-11-25T02:03:24.297Z,47.49
2018-11-25T02:03:24.904Z,47.77
2018-11-25T02:04:19.400Z,48.15
2018-11-25T02:04:19.978Z,48.06
2018-11-25T02:04:20.574Z,48.06
2018-11-25T02:04:21.174Z,47.96
2018-11-25T02:04:21.774Z,47.96
2018-11-25T02:04:22.373Z,48.15
2018-11-25T02:04:22.973Z,48.15
2018-11-25T02:04:23.573Z,47.96
2018-11-25T02:05:18.075Z,48.44
2018-11-25T02:05:18.649Z,48.34
2018-11-25T02:05:19.259Z,48.34
2018-11-25T02:05:19.868Z,47.96
2018-11-25T02:05:20.458Z,48.44
2018-11-25T02:05:21.050Z,48.06
2018-11-25T02:05:21.648Z,48.34
2018-11-25T02:05:22.250Z,48.25
2018-11-25T02:06:15.727Z,48.82
2018-11-25T02:06:16.301Z,49.01
2018-11-25T02:06:16.908Z,49.01
2018-11-25T02:06:17.502Z,48.82
2018-11-25T02:06:18.101Z,49.01
2018-11-25T02:06:18.701Z,48.82
2018-11-25T02:06:19.302Z,48.82
2018-11-25T02:06:19.905Z,48.91
2018-11-25T02:07:14.403Z,49.48
2018-11-25T02:07:14.979Z,49.48
2018-11-25T02:07:15.578Z,49.38
2018-11-25T02:07:16.178Z,49.48
2018-11-25T02:07:16.777Z,49.38
2018-11-25T02:07:17.383Z,49.38
2018-11-25T02:07:17.977Z,49.38
2018-11-25T02:07:18.579Z,49.57
2018-11-25T02:08:13.082Z,50.43
2018-11-25T02:08:13.656Z,50.43
2018-11-25T02:08:14.252Z,50.43
2018-11-25T02:08:14.852Z,50.52
2018-11-25T02:08:15.452Z,50.52
2018-11-25T02:08:16.052Z,50.52
2018-11-25T02:08:16.652Z,50.52
2018-11-25T02:08:17.252Z,50.52
2018-11-25T02:09:11.755Z,51.18
2018-11-25T02:09:12.330Z,51.28
2018-11-25T02:09:12.934Z,51.37
2018-11-25T02:09:13.529Z,51.28
2018-11-25T02:09:14.128Z,51.09
2018-11-25T02:09:14.730Z,51.28
2018-11-25T02:09:15.330Z,51.28
2018-11-25T02:09:15.928Z,51.28
2018-11-25T02:10:10.434Z,51.85
2018-11-25T02:10:11.004Z,51.76
2018-11-25T02:10:11.603Z,51.85
2018-11-25T02:10:12.205Z,51.85
2018-11-25T02:10:12.810Z,51.85
2018-11-25T02:10:13.403Z,51.85
2018-11-25T02:10:14.003Z,51.66
2018-11-25T02:10:14.612Z,51.66
2018-11-25T02:11:08.083Z,51.76
2018-11-25T02:11:08.657Z,51.66
2018-11-25T02:11:09.258Z,51.66
2018-11-25T02:11:09.858Z,51.76
2018-11-25T02:11:10.455Z,51.76
2018-11-25T02:11:11.057Z,51.76
2018-11-25T02:11:11.659Z,51.85
2018-11-25T02:11:12.256Z,51.85
2018-11-25T02:12:05.827Z,51.66
2018-11-25T02:12:06.329Z,51.66
2018-11-25T02:12:06.923Z,51.66
2018-11-25T02:12:07.526Z,51.66
2018-11-25T02:12:08.123Z,51.76
2018-11-25T02:12:08.723Z,51.68
2018-11-25T02:12:09.324Z,51.76
2018-11-25T02:12:09.921Z,51.66
2018-11-25T02:13:03.384Z,51.85
2018-11-25T02:13:03.961Z,52.14
2018-11-25T02:13:04.560Z,51.85
2018-11-25T02:13:05.160Z,51.85
2018-11-25T02:13:05.761Z,51.59
2018-11-25T02:13:06.359Z,52.04
2018-11-25T02:13:06.958Z,51.87
2018-11-25T02:13:07.563Z,51.78
2018-11-25T02:14:01.036Z,52.14
2018-11-25T02:14:01.612Z,52.04
2018-11-25T02:14:02.211Z,52.33
2018-11-25T02:14:02.812Z,52.14
2018-11-25T02:14:03.414Z,52.89
2018-11-25T02:14:04.010Z,52.26
2018-11-25T02:14:04.611Z,52.16
2018-11-25T02:14:05.211Z,52.92
2018-11-25T02:14:59.713Z,53.46
2018-11-25T02:15:00.288Z,53.56
2018-11-25T02:15:00.886Z,53.75
2018-11-25T02:15:01.486Z,53.27
2018-11-25T02:15:02.087Z,53.75
2018-11-25T02:15:02.687Z,53.75
2018-11-25T02:15:03.291Z,53.75
2018-11-25T02:15:03.886Z,53.20
2018-11-25T02:15:58.391Z,53.08
2018-11-25T02:15:58.963Z,53.18
2018-11-25T02:15:59.570Z,53.20
2018-11-25T02:16:00.162Z,53.18
2018-11-25T02:16:00.763Z,53.18
2018-11-25T02:16:01.361Z,53.18
2018-11-25T02:16:01.964Z,53.56
2018-11-25T02:16:02.564Z,53.20
2018-11-25T02:16:56.052Z,53.37
2018-11-25T02:16:56.620Z,53.68
2018-11-25T02:16:57.219Z,53.49
2018-11-25T02:16:57.818Z,53.37
2018-11-25T02:16:58.418Z,53.49
2018-11-25T02:16:59.017Z,53.37
2018-11-25T02:16:59.619Z,53.77
2018-11-25T02:17:00.219Z,53.58
2018-11-25T02:17:54.722Z,54.53
2018-11-25T02:17:55.293Z,54.60
2018-11-25T02:17:55.893Z,54.53
2018-11-25T02:17:56.493Z,54.53
2018-11-25T02:17:57.095Z,54.34
2018-11-25T02:17:57.693Z,54.22
2018-11-25T02:17:58.292Z,54.25
2018-11-25T02:17:58.893Z,54.34
2018-11-25T02:18:52.373Z,54.88
2018-11-25T02:18:52.947Z,55.10
2018-11-25T02:18:53.547Z,55.00
2018-11-25T02:18:54.146Z,55.17
2018-11-25T02:18:54.746Z,54.69
2018-11-25T02:18:55.345Z,55.26
2018-11-25T02:18:55.946Z,55.26
2018-11-25T02:18:56.546Z,55.19
2018-11-25T02:19:51.049Z,55.74
2018-11-25T02:19:51.621Z,55.55
2018-11-25T02:19:52.222Z,55.55
2018-11-25T02:19:52.821Z,55.55
2018-11-25T02:19:53.424Z,55.76
2018-11-25T02:19:54.021Z,55.83
2018-11-25T02:19:54.622Z,55.55
2018-11-25T02:19:55.220Z,55.83
2018-11-25T02:20:48.700Z,55.83
2018-11-25T02:20:49.274Z,55.83
2018-11-25T02:20:49.873Z,56.15
2018-11-25T02:20:50.472Z,56.21
2018-11-25T02:20:51.074Z,56.12
2018-11-25T02:20:51.676Z,56.12
2018-11-25T02:20:52.272Z,56.12
2018-11-25T02:20:52.873Z,56.12
2018-11-25T02:21:47.378Z,56.21
2018-11-25T02:21:47.949Z,56.21
2018-11-25T02:21:48.551Z,56.30
2018-11-25T02:21:49.150Z,56.21
2018-11-25T02:21:49.749Z,56.21
2018-11-25T02:21:50.353Z,56.21
2018-11-25T02:21:50.949Z,56.30
2018-11-25T02:21:51.548Z,56.12
2018-11-25T02:22:46.083Z,55.64
2018-11-25T02:22:46.626Z,55.55
2018-11-25T02:22:47.226Z,55.74
2018-11-25T02:22:47.825Z,55.55
2018-11-25T02:22:48.425Z,55.74
2018-11-25T02:22:49.028Z,55.74
2018-11-25T02:22:49.624Z,55.55
2018-11-25T02:22:50.224Z,55.55
2018-11-25T02:23:44.734Z,55.93
2018-11-25T02:23:45.301Z,56.30
2018-11-25T02:23:45.901Z,55.83
2018-11-25T02:23:46.501Z,55.93
2018-11-25T02:23:47.101Z,56.12
2018-11-25T02:23:47.700Z,56.30
2018-11-25T02:23:48.300Z,55.93
2018-11-25T02:23:48.901Z,56.15
2018-11-25T02:24:42.383Z,56.49
2018-11-25T02:24:42.953Z,56.59
2018-11-25T02:24:43.553Z,56.59
2018-11-25T02:24:44.156Z,56.49
2018-11-25T02:24:44.754Z,56.49
2018-11-25T02:24:45.353Z,56.68
2018-11-25T02:24:45.953Z,56.59
2018-11-25T02:24:46.552Z,56.68
2018-11-25T02:25:40.033Z,56.68
2018-11-25T02:25:40.605Z,56.40
2018-11-25T02:25:41.204Z,56.40
2018-11-25T02:25:41.804Z,56.40
2018-11-25T02:25:42.405Z,56.49
2018-11-25T02:25:43.005Z,56.49
2018-11-25T02:25:43.604Z,56.97
2018-11-25T02:25:44.203Z,56.97
2018-11-25T02:26:38.709Z,57.92
2018-11-25T02:26:39.280Z,57.64
2018-11-25T02:26:39.881Z,57.35
2018-11-25T02:26:40.482Z,57.64
2018-11-25T02:26:41.081Z,57.35
2018-11-25T02:26:41.679Z,57.54
2018-11-25T02:26:42.279Z,57.44
2018-11-25T02:26:42.878Z,57.44
2018-11-25T02:27:36.360Z,57.16
2018-11-25T02:27:36.933Z,57.35
2018-11-25T02:27:37.532Z,57.38
2018-11-25T02:27:38.131Z,57.35
2018-11-25T02:27:38.736Z,57.09
2018-11-25T02:27:39.336Z,57.19
2018-11-25T02:27:39.934Z,57.28
2018-11-25T02:27:40.530Z,57.25
2018-11-25T02:28:34.012Z,57.38
2018-11-25T02:28:34.584Z,57.38
2018-11-25T02:28:35.183Z,57.16
2018-11-25T02:28:35.787Z,56.99
2018-11-25T02:28:36.383Z,57.19
2018-11-25T02:28:36.983Z,57.28
2018-11-25T02:28:37.583Z,57.38
2018-11-25T02:28:38.183Z,57.16
2018-11-25T02:29:31.664Z,57.47
2018-11-25T02:29:32.236Z,57.64
2018-11-25T02:29:32.835Z,57.66
2018-11-25T02:29:33.436Z,57.47
2018-11-25T02:29:34.035Z,57.47
2018-11-25T02:29:34.638Z,57.57
2018-11-25T02:29:35.239Z,57.47
2018-11-25T02:29:35.834Z,57.47
2018-11-25T02:30:30.338Z,58.04
2018-11-25T02:30:30.909Z,58.20
2018-11-25T02:30:31.511Z,58.04
2018-11-25T02:30:32.109Z,58.23
2018-11-25T02:30:32.709Z,58.04
2018-11-25T02:30:33.308Z,58.01
2018-11-25T02:30:33.911Z,58.14
2018-11-25T02:30:34.509Z,58.14
2018-11-25T02:31:29.013Z,58.04
2018-11-25T02:31:29.585Z,58.14
2018-11-25T02:31:30.186Z,58.04
2018-11-25T02:31:30.786Z,58.04
2018-11-25T02:31:31.385Z,58.04
2018-11-25T02:31:31.985Z,58.14
2018-11-25T02:31:32.586Z,58.14
2018-11-25T02:31:33.186Z,58.04
2018-11-25T02:32:27.689Z,58.23
2018-11-25T02:32:28.263Z,58.33
2018-11-25T02:32:28.862Z,58.14
2018-11-25T02:32:29.461Z,58.33
2018-11-25T02:32:30.061Z,58.33
2018-11-25T02:32:30.664Z,58.04
2018-11-25T02:32:31.261Z,58.04
2018-11-25T02:32:31.861Z,58.23
2018-11-25T02:33:25.340Z,59.08
2018-11-25T02:33:25.915Z,59.27
2018-11-25T02:33:26.515Z,59.37
2018-11-25T02:33:27.115Z,59.27
2018-11-25T02:33:27.715Z,59.37
2018-11-25T02:33:28.314Z,59.18
2018-11-25T02:33:28.913Z,59.08
2018-11-25T02:33:29.514Z,59.08
2018-11-25T02:34:22.998Z,59.56
2018-11-25T02:34:23.568Z,59.56
2018-11-25T02:34:24.165Z,59.37
2018-11-25T02:34:24.765Z,59.56
2018-11-25T02:34:25.371Z,59.56
2018-11-25T02:34:25.964Z,59.56
2018-11-25T02:34:26.565Z,59.37
2018-11-25T02:34:27.167Z,59.27
2018-11-25T02:35:20.647Z,59.27
2018-11-25T02:35:21.218Z,59.37
2018-11-25T02:35:21.819Z,59.27
2018-11-25T02:35:22.420Z,59.37
2018-11-25T02:35:23.017Z,59.46
2018-11-25T02:35:23.618Z,59.37
2018-11-25T02:35:24.218Z,59.37
2018-11-25T02:35:24.817Z,59.37
2018-11-25T02:36:19.318Z,59.18
2018-11-25T02:36:19.894Z,59.37
2018-11-25T02:36:20.492Z,59.18
2018-11-25T02:36:21.093Z,59.37
2018-11-25T02:36:21.693Z,59.37
2018-11-25T02:36:22.292Z,59.37
2018-11-25T02:36:22.891Z,59.37
2018-11-25T02:36:23.491Z,59.46
2018-11-25T02:37:17.996Z,60.22
2018-11-25T02:37:18.569Z,60.31
2018-11-25T02:37:19.168Z,60.31
2018-11-25T02:37:19.768Z,60.22
2018-11-25T02:37:20.368Z,60.28
2018-11-25T02:37:20.967Z,60.31
2018-11-25T02:37:21.569Z,60.22
2018-11-25T02:37:22.169Z,60.31
2018-11-25T02:38:16.671Z,60.19
2018-11-25T02:38:17.244Z,60.22
2018-11-25T02:38:17.843Z,60.22
2018-11-25T02:38:18.444Z,60.31
2018-11-25T02:38:19.049Z,60.19
2018-11-25T02:38:19.642Z,60.28
2018-11-25T02:38:20.241Z,60.22
2018-11-25T02:38:20.842Z,60.22
2018-11-25T02:39:14.324Z,59.53
2018-11-25T02:39:14.897Z,59.53
2018-11-25T02:39:15.496Z,59.66
2018-11-25T02:39:16.095Z,59.56
2018-11-25T02:39:16.697Z,59.56
2018-11-25T02:39:17.295Z,59.56
2018-11-25T02:39:17.896Z,59.75
2018-11-25T02:39:18.495Z,59.53
2018-11-25T02:40:13.001Z,59.37
2018-11-25T02:40:13.571Z,59.66
2018-11-25T02:40:14.176Z,59.56
2018-11-25T02:40:14.774Z,59.46
2018-11-25T02:40:15.372Z,59.27
2018-11-25T02:40:15.971Z,59.66
2018-11-25T02:40:16.575Z,59.66
2018-11-25T02:40:17.170Z,59.66
2018-11-25T02:41:11.676Z,59.46
2018-11-25T02:41:12.247Z,59.37
2018-11-25T02:41:12.846Z,59.44
2018-11-25T02:41:13.445Z,59.25
2018-11-25T02:41:14.047Z,59.44
2018-11-25T02:41:14.646Z,59.15
2018-11-25T02:41:15.246Z,59.44
2018-11-25T02:41:15.847Z,59.46
2018-11-25T02:42:10.350Z,59.34
2018-11-25T02:42:10.922Z,59.27
2018-11-25T02:42:11.523Z,59.25
2018-11-25T02:42:12.123Z,59.27
2018-11-25T02:42:12.721Z,59.25
2018-11-25T02:42:13.322Z,59.27
2018-11-25T02:42:13.927Z,59.25
2018-11-25T02:42:14.525Z,59.27
2018-11-25T02:43:09.026Z,58.77
2018-11-25T02:43:09.600Z,58.96
2018-11-25T02:43:10.197Z,58.89
2018-11-25T02:43:10.798Z,58.77
2018-11-25T02:43:11.401Z,58.89
2018-11-25T02:43:12.000Z,58.99
2018-11-25T02:43:13.962Z,58.86
2018-11-25T02:43:14.022Z,59.08
2018-11-25T02:44:07.702Z,59.27
2018-11-25T02:44:08.278Z,58.99
2018-11-25T02:44:08.875Z,59.27
2018-11-25T02:44:09.474Z,58.99
2018-11-25T02:44:10.075Z,59.37
2018-11-25T02:44:10.678Z,59.08
2018-11-25T02:44:11.274Z,59.08
2018-11-25T02:44:11.874Z,59.08
2018-11-25T02:45:05.354Z,59.15
2018-11-25T02:45:05.926Z,59.27
2018-11-25T02:45:06.526Z,59.27
2018-11-25T02:45:07.128Z,59.34
2018-11-25T02:45:07.725Z,59.37
2018-11-25T02:45:08.326Z,59.37
2018-11-25T02:45:08.926Z,59.37
2018-11-25T02:45:09.530Z,59.18
2018-11-25T02:46:03.006Z,59.05
2018-11-25T02:46:03.583Z,58.96
2018-11-25T02:46:04.178Z,58.96
2018-11-25T02:46:04.778Z,59.05
2018-11-25T02:46:05.379Z,58.96
2018-11-25T02:46:05.978Z,58.86
2018-11-25T02:46:06.579Z,58.96
2018-11-25T02:46:07.178Z,58.96
2018-11-25T02:47:01.683Z,58.11
2018-11-25T02:47:02.254Z,58.20
2018-11-25T02:47:02.854Z,58.20
2018-11-25T02:47:03.453Z,58.20
2018-11-25T02:47:04.053Z,58.29
2018-11-25T02:47:04.652Z,58.20
2018-11-25T02:47:05.254Z,58.29
2018-11-25T02:47:05.853Z,58.29
2018-11-25T02:48:00.356Z,58.20
2018-11-25T02:48:00.930Z,58.20
2018-11-25T02:48:01.531Z,58.20
2018-11-25T02:48:02.132Z,58.33
2018-11-25T02:48:02.729Z,58.39
2018-11-25T02:48:03.332Z,58.20
2018-11-25T02:48:03.929Z,58.29
2018-11-25T02:48:04.529Z,58.39
2018-11-25T02:48:59.032Z,58.39
2018-11-25T02:48:59.610Z,58.20
2018-11-25T02:49:00.205Z,58.33
2018-11-25T02:49:00.806Z,58.20
2018-11-25T02:49:01.405Z,58.23
2018-11-25T02:49:02.005Z,58.20
2018-11-25T02:49:02.604Z,58.20
2018-11-25T02:49:03.204Z,58.39
2018-11-25T02:49:57.709Z,58.39
2018-11-25T02:49:58.286Z,58.51
2018-11-25T02:49:58.885Z,58.42
2018-11-25T02:49:59.480Z,58.39
2018-11-25T02:50:00.111Z,58.51
2018-11-25T02:50:00.679Z,58.42
2018-11-25T02:50:01.278Z,58.51
2018-11-25T02:50:01.878Z,58.51
2018-11-25T02:50:56.385Z,57.92
2018-11-25T02:50:56.959Z,58.29
2018-11-25T02:50:57.558Z,58.04
2018-11-25T02:50:58.157Z,58.04
2018-11-25T02:50:58.755Z,58.14
2018-11-25T02:50:59.356Z,57.95
2018-11-25T02:50:59.955Z,58.23
2018-11-25T02:51:00.558Z,58.33
2018-11-25T02:51:54.037Z,58.96
2018-11-25T02:51:54.609Z,58.96
2018-11-25T02:51:55.212Z,58.99
2018-11-25T02:51:55.809Z,58.99
2018-11-25T02:51:56.408Z,58.99
2018-11-25T02:51:57.008Z,59.08
2018-11-25T02:51:57.617Z,59.08
2018-11-25T02:51:58.207Z,59.08
2018-11-25T02:52:52.711Z,58.89
2018-11-25T02:52:53.283Z,58.89
2018-11-25T02:52:53.884Z,58.99
2018-11-25T02:52:54.482Z,58.99
2018-11-25T02:52:55.083Z,59.08
2018-11-25T02:52:55.682Z,59.08
2018-11-25T02:52:56.283Z,58.99
2018-11-25T02:52:56.883Z,59.08
2018-11-25T02:53:51.392Z,59.37
2018-11-25T02:53:51.963Z,59.18
2018-11-25T02:53:52.559Z,59.25
2018-11-25T02:53:53.159Z,59.15
2018-11-25T02:53:53.758Z,59.27
2018-11-25T02:53:54.358Z,59.27
2018-11-25T02:53:54.957Z,59.37
2018-11-25T02:53:55.558Z,59.27
2018-11-25T02:54:49.038Z,59.08
2018-11-25T02:54:49.612Z,58.96
2018-11-25T02:54:50.211Z,58.77
2018-11-25T02:54:50.812Z,58.99
2018-11-25T02:54:51.412Z,58.99
2018-11-25T02:54:52.013Z,58.99
2018-11-25T02:54:52.611Z,58.80
2018-11-25T02:54:53.212Z,58.99
2018-11-25T02:55:47.715Z,58.89
2018-11-25T02:55:48.287Z,58.70
2018-11-25T02:55:48.886Z,58.89
2018-11-25T02:55:49.486Z,58.70
2018-11-25T02:55:50.090Z,59.27
2018-11-25T02:55:50.686Z,59.05
2018-11-25T02:55:51.287Z,59.18
2018-11-25T02:55:51.886Z,58.89
2018-11-25T02:56:46.389Z,59.46
2018-11-25T02:56:46.964Z,59.18
2018-11-25T02:56:47.562Z,59.37
2018-11-25T02:56:48.162Z,59.27
2018-11-25T02:56:48.764Z,59.18
2018-11-25T02:56:49.362Z,59.27
2018-11-25T02:56:49.964Z,59.37
2018-11-25T02:56:50.563Z,59.27
2018-11-25T02:57:45.067Z,59.37
2018-11-25T02:57:45.643Z,59.25
2018-11-25T02:57:46.239Z,59.46
2018-11-25T02:57:46.839Z,59.46
2018-11-25T02:57:47.439Z,59.56
2018-11-25T02:57:48.041Z,59.37
2018-11-25T02:57:48.638Z,59.56
2018-11-25T02:57:49.238Z,59.56
2018-11-25T02:58:42.719Z,59.37
2018-11-25T02:58:43.292Z,59.56
2018-11-25T02:58:43.891Z,59.37
2018-11-25T02:58:44.490Z,59.46
2018-11-25T02:58:45.092Z,59.34
2018-11-25T02:58:45.690Z,59.18
2018-11-25T02:58:46.290Z,59.37
2018-11-25T02:58:46.890Z,59.18
2018-11-25T02:59:41.393Z,59.37
2018-11-25T02:59:41.967Z,59.84
2018-11-25T02:59:42.569Z,59.46
2018-11-25T02:59:43.166Z,59.94
2018-11-25T02:59:43.765Z,59.94
2018-11-25T02:59:44.364Z,59.94
2018-11-25T02:59:44.965Z,59.94
2018-11-25T02:59:45.564Z,59.94
2018-11-25T03:00:39.047Z,60.31
2018-11-25T03:00:39.617Z,60.19
2018-11-25T03:00:40.217Z,60.31
2018-11-25T03:00:40.818Z,60.22
2018-11-25T03:00:41.418Z,60.31
2018-11-25T03:00:42.017Z,60.13
2018-11-25T03:00:42.620Z,60.13
2018-11-25T03:00:43.216Z,60.03
2018-11-25T03:01:37.724Z,60.60
2018-11-25T03:01:38.296Z,60.31
2018-11-25T03:01:38.892Z,60.70
2018-11-25T03:01:39.491Z,60.60
2018-11-25T03:01:40.093Z,60.70
2018-11-25T03:01:40.692Z,60.70
2018-11-25T03:01:41.291Z,60.70
2018-11-25T03:01:41.891Z,60.70
2018-11-25T03:02:35.374Z,60.22
2018-11-25T03:02:35.946Z,60.31
2018-11-25T03:02:36.545Z,60.22
2018-11-25T03:02:37.146Z,60.31
2018-11-25T03:02:37.745Z,60.13